sensor_id;sensor_type;location;lat;lon;timestamp;pressure;altitude;pressure_sealevel;temperature;humidity
84994;BME280;75309;44.830;20.460;2024-02-28T00:01:12;100782.59;;;13.97;50.78
84994;BME280;75309;44.830;20.460;2024-02-28T00:03:45;100784.93;;;13.96;50.88
84994;BME280;75309;44.830;20.460;2024-02-28T00:06:16;100787.98;;;13.94;50.87
84994;BME280;75309;44.830;20.460;2024-02-28T00:08:43;100786.45;;;13.94;50.94
84994;BME280;75309;44.830;20.460;2024-02-28T00:11:10;100790.02;;;13.93;51.03
84994;BME280;75309;44.830;20.460;2024-02-28T00:13:37;100792.33;;;13.91;51.05
84994;BME280;75309;44.830;20.460;2024-02-28T00:16:04;100793.48;;;13.89;51.01
84994;BME280;75309;44.830;20.460;2024-02-28T00:18:31;100799.65;;;13.88;51.07
84994;BME280;75309;44.830;20.460;2024-02-28T00:20:58;100797.77;;;13.88;51.15
84994;BME280;75309;44.830;20.460;2024-02-28T00:23:25;100796.91;;;13.89;51.15
84994;BME280;75309;44.830;20.460;2024-02-28T00:25:52;100795.67;;;13.87;51.34
84994;BME280;75309;44.830;20.460;2024-02-28T00:28:19;100800.41;;;13.85;51.26
84994;BME280;75309;44.830;20.460;2024-02-28T00:30:46;100808.08;;;13.83;51.32
84994;BME280;75309;44.830;20.460;2024-02-28T00:33:12;100799.56;;;13.81;51.38
84994;BME280;75309;44.830;20.460;2024-02-28T00:35:39;100802.98;;;13.80;51.61
84994;BME280;75309;44.830;20.460;2024-02-28T00:38:09;100799.44;;;13.78;51.68
84994;BME280;75309;44.830;20.460;2024-02-28T00:40:36;100797.73;;;13.78;51.75
84994;BME280;75309;44.830;20.460;2024-02-28T00:43:05;100800.58;;;13.77;51.72
84994;BME280;75309;44.830;20.460;2024-02-28T00:45:32;100803.95;;;13.75;51.95
84994;BME280;75309;44.830;20.460;2024-02-28T00:47:58;100798.86;;;13.72;51.91
84994;BME280;75309;44.830;20.460;2024-02-28T00:50:25;100799.01;;;13.71;52.06
84994;BME280;75309;44.830;20.460;2024-02-28T00:52:51;100793.16;;;13.71;52.05
84994;BME280;75309;44.830;20.460;2024-02-28T00:55:18;100796.77;;;13.71;52.10
84994;BME280;75309;44.830;20.460;2024-02-28T00:57:45;100795.40;;;13.71;52.15
84994;BME280;75309;44.830;20.460;2024-02-28T01:00:12;100795.69;;;13.70;52.07
84994;BME280;75309;44.830;20.460;2024-02-28T01:02:40;100796.66;;;13.68;52.25
84994;BME280;75309;44.830;20.460;2024-02-28T01:05:08;100796.81;;;13.68;52.20
84994;BME280;75309;44.830;20.460;2024-02-28T01:07:35;100795.94;;;13.67;52.20
84994;BME280;75309;44.830;20.460;2024-02-28T01:10:03;100799.02;;;13.67;52.17
84994;BME280;75309;44.830;20.460;2024-02-28T01:12:31;100796.44;;;13.67;52.27
84994;BME280;75309;44.830;20.460;2024-02-28T01:14:58;100794.90;;;13.67;52.42
84994;BME280;75309;44.830;20.460;2024-02-28T01:17:25;100796.38;;;13.65;52.36
84994;BME280;75309;44.830;20.460;2024-02-28T01:19:51;100801.00;;;13.65;52.51
84994;BME280;75309;44.830;20.460;2024-02-28T01:22:18;100800.55;;;13.62;52.58
84994;BME280;75309;44.830;20.460;2024-02-28T01:24:45;100797.01;;;13.60;52.59
84994;BME280;75309;44.830;20.460;2024-02-28T01:27:13;100799.05;;;13.59;52.76
84994;BME280;75309;44.830;20.460;2024-02-28T01:29:40;100802.59;;;13.57;52.74
84994;BME280;75309;44.830;20.460;2024-02-28T01:32:10;100800.33;;;13.56;52.88
84994;BME280;75309;44.830;20.460;2024-02-28T01:34:37;100801.68;;;13.55;52.79
84994;BME280;75309;44.830;20.460;2024-02-28T01:37:04;100798.05;;;13.55;52.82
84994;BME280;75309;44.830;20.460;2024-02-28T01:39:31;100803.73;;;13.55;52.88
84994;BME280;75309;44.830;20.460;2024-02-28T01:41:58;100807.17;;;13.55;52.86
84994;BME280;75309;44.830;20.460;2024-02-28T01:44:25;100810.98;;;13.55;52.89
84994;BME280;75309;44.830;20.460;2024-02-28T01:46:52;100811.19;;;13.57;52.87
84994;BME280;75309;44.830;20.460;2024-02-28T01:49:21;100817.62;;;13.58;52.92
84994;BME280;75309;44.830;20.460;2024-02-28T01:51:48;100817.59;;;13.57;52.88
84994;BME280;75309;44.830;20.460;2024-02-28T01:54:16;100815.69;;;13.57;52.82
84994;BME280;75309;44.830;20.460;2024-02-28T01:56:43;100816.04;;;13.57;52.86
84994;BME280;75309;44.830;20.460;2024-02-28T01:59:10;100816.03;;;13.57;52.85
84994;BME280;75309;44.830;20.460;2024-02-28T02:01:37;100815.88;;;13.57;52.91
84994;BME280;75309;44.830;20.460;2024-02-28T02:04:04;100819.14;;;13.57;52.96
84994;BME280;75309;44.830;20.460;2024-02-28T02:06:32;100819.34;;;13.58;52.92
84994;BME280;75309;44.830;20.460;2024-02-28T02:08:59;100819.86;;;13.58;52.86
84994;BME280;75309;44.830;20.460;2024-02-28T02:11:28;100823.00;;;13.59;52.86
84994;BME280;75309;44.830;20.460;2024-02-28T02:13:55;100821.79;;;13.59;52.92
84994;BME280;75309;44.830;20.460;2024-02-28T02:16:22;100816.77;;;13.59;52.86
84994;BME280;75309;44.830;20.460;2024-02-28T02:18:49;100815.66;;;13.57;53.01
84994;BME280;75309;44.830;20.460;2024-02-28T02:21:23;100819.36;;;13.54;53.00
84994;BME280;75309;44.830;20.460;2024-02-28T02:23:51;100818.79;;;13.53;53.02
84994;BME280;75309;44.830;20.460;2024-02-28T02:26:18;100815.69;;;13.53;53.13
84994;BME280;75309;44.830;20.460;2024-02-28T02:28:45;100820.32;;;13.52;53.09
84994;BME280;75309;44.830;20.460;2024-02-28T02:31:13;100814.56;;;13.50;53.25
84994;BME280;75309;44.830;20.460;2024-02-28T02:33:39;100816.40;;;13.49;53.24
84994;BME280;75309;44.830;20.460;2024-02-28T02:36:06;100816.38;;;13.49;53.26
84994;BME280;75309;44.830;20.460;2024-02-28T02:38:33;100820.66;;;13.48;53.30
84994;BME280;75309;44.830;20.460;2024-02-28T02:41:00;100822.35;;;13.47;53.22
84994;BME280;75309;44.830;20.460;2024-02-28T02:43:26;100821.84;;;13.47;53.30
84994;BME280;75309;44.830;20.460;2024-02-28T02:45:53;100820.98;;;13.47;53.40
84994;BME280;75309;44.830;20.460;2024-02-28T02:48:20;100823.85;;;13.46;53.30
84994;BME280;75309;44.830;20.460;2024-02-28T02:50:46;100825.73;;;13.45;53.34
84994;BME280;75309;44.830;20.460;2024-02-28T02:53:13;100822.79;;;13.45;53.44
84994;BME280;75309;44.830;20.460;2024-02-28T02:55:41;100823.45;;;13.44;53.41
84994;BME280;75309;44.830;20.460;2024-02-28T02:58:08;100821.89;;;13.44;53.33
84994;BME280;75309;44.830;20.460;2024-02-28T03:00:35;100825.47;;;13.43;53.37
84994;BME280;75309;44.830;20.460;2024-02-28T03:03:01;100826.66;;;13.43;53.32
84994;BME280;75309;44.830;20.460;2024-02-28T03:05:29;100822.40;;;13.40;53.39
84994;BME280;75309;44.830;20.460;2024-02-28T03:07:55;100824.44;;;13.39;53.41
84994;BME280;75309;44.830;20.460;2024-02-28T03:10:22;100824.79;;;13.39;53.57
84994;BME280;75309;44.830;20.460;2024-02-28T03:12:49;100820.00;;;13.40;53.47
84994;BME280;75309;44.830;20.460;2024-02-28T03:15:15;100825.52;;;13.40;53.45
84994;BME280;75309;44.830;20.460;2024-02-28T03:17:42;100831.55;;;13.41;53.44
84994;BME280;75309;44.830;20.460;2024-02-28T03:20:10;100833.92;;;13.39;53.44
84994;BME280;75309;44.830;20.460;2024-02-28T03:22:38;100833.02;;;13.39;53.47
84994;BME280;75309;44.830;20.460;2024-02-28T03:25:05;100835.63;;;13.39;53.51
84994;BME280;75309;44.830;20.460;2024-02-28T03:27:32;100833.23;;;13.39;53.57
84994;BME280;75309;44.830;20.460;2024-02-28T03:29:58;100832.19;;;13.39;53.51
84994;BME280;75309;44.830;20.460;2024-02-28T03:32:25;100832.30;;;13.37;53.49
84994;BME280;75309;44.830;20.460;2024-02-28T03:34:52;100831.52;;;13.35;53.43
84994;BME280;75309;44.830;20.460;2024-02-28T03:37:19;100836.16;;;13.35;53.61
84994;BME280;75309;44.830;20.460;2024-02-28T03:39:46;100840.27;;;13.35;53.48
84994;BME280;75309;44.830;20.460;2024-02-28T03:42:12;100842.67;;;13.34;53.56
84994;BME280;75309;44.830;20.460;2024-02-28T03:44:39;100845.49;;;13.32;53.66
84994;BME280;75309;44.830;20.460;2024-02-28T03:47:06;100849.38;;;13.30;53.58
84994;BME280;75309;44.830;20.460;2024-02-28T03:49:32;100846.90;;;13.29;53.70
84994;BME280;75309;44.830;20.460;2024-02-28T03:51:59;100849.08;;;13.27;53.77
84994;BME280;75309;44.830;20.460;2024-02-28T03:54:27;100850.61;;;13.27;53.76
84994;BME280;75309;44.830;20.460;2024-02-28T03:56:54;100851.98;;;13.26;53.73
84994;BME280;75309;44.830;20.460;2024-02-28T03:59:21;100853.13;;;13.25;53.73
84994;BME280;75309;44.830;20.460;2024-02-28T04:01:47;100860.30;;;13.24;53.81
84994;BME280;75309;44.830;20.460;2024-02-28T04:04:14;100860.62;;;13.23;53.78
84994;BME280;75309;44.830;20.460;2024-02-28T04:06:41;100862.94;;;13.21;53.83
84994;BME280;75309;44.830;20.460;2024-02-28T04:09:08;100858.99;;;13.17;53.79
84994;BME280;75309;44.830;20.460;2024-02-28T04:11:37;100864.10;;;13.16;53.94
84994;BME280;75309;44.830;20.460;2024-02-28T04:14:04;100860.96;;;13.15;53.95
84994;BME280;75309;44.830;20.460;2024-02-28T04:16:30;100865.94;;;13.15;53.96
84994;BME280;75309;44.830;20.460;2024-02-28T04:18:57;100867.32;;;13.15;53.98
84994;BME280;75309;44.830;20.460;2024-02-28T04:21:24;100863.64;;;13.13;54.00
84994;BME280;75309;44.830;20.460;2024-02-28T04:23:51;100861.83;;;13.11;54.07
84994;BME280;75309;44.830;20.460;2024-02-28T04:26:18;100861.15;;;13.12;53.99
84994;BME280;75309;44.830;20.460;2024-02-28T04:28:45;100858.53;;;13.11;54.06
84994;BME280;75309;44.830;20.460;2024-02-28T04:31:12;100864.35;;;13.10;54.08
84994;BME280;75309;44.830;20.460;2024-02-28T04:33:38;100864.80;;;13.08;54.10
84994;BME280;75309;44.830;20.460;2024-02-28T04:36:05;100869.21;;;13.07;54.10
84994;BME280;75309;44.830;20.460;2024-02-28T04:38:33;100871.64;;;13.02;54.08
84994;BME280;75309;44.830;20.460;2024-02-28T04:41:00;100871.36;;;13.00;54.08
84994;BME280;75309;44.830;20.460;2024-02-28T04:43:26;100878.89;;;12.99;54.19
84994;BME280;75309;44.830;20.460;2024-02-28T04:45:53;100877.30;;;12.98;54.16
84994;BME280;75309;44.830;20.460;2024-02-28T04:48:19;100886.31;;;12.96;54.15
84994;BME280;75309;44.830;20.460;2024-02-28T04:50:46;100886.94;;;12.94;54.16
84994;BME280;75309;44.830;20.460;2024-02-28T04:53:13;100889.92;;;12.92;54.23
84994;BME280;75309;44.830;20.460;2024-02-28T04:55:39;100893.30;;;12.90;54.26
84994;BME280;75309;44.830;20.460;2024-02-28T04:58:06;100896.15;;;12.89;54.19
84994;BME280;75309;44.830;20.460;2024-02-28T05:00:32;100898.67;;;12.87;54.30
84994;BME280;75309;44.830;20.460;2024-02-28T05:02:59;100898.74;;;12.85;54.31
84994;BME280;75309;44.830;20.460;2024-02-28T05:05:26;100904.35;;;12.83;54.39
84994;BME280;75309;44.830;20.460;2024-02-28T05:07:52;100907.58;;;12.82;54.27
84994;BME280;75309;44.830;20.460;2024-02-28T05:10:19;100903.59;;;12.81;54.40
84994;BME280;75309;44.830;20.460;2024-02-28T05:12:45;100907.98;;;12.80;54.39
84994;BME280;75309;44.830;20.460;2024-02-28T05:15:12;100906.73;;;12.79;54.36
84994;BME280;75309;44.830;20.460;2024-02-28T05:17:38;100899.53;;;12.79;54.35
84994;BME280;75309;44.830;20.460;2024-02-28T05:20:06;100904.48;;;12.79;54.32
84994;BME280;75309;44.830;20.460;2024-02-28T05:22:33;100901.46;;;12.76;54.44
84994;BME280;75309;44.830;20.460;2024-02-28T05:25:00;100905.11;;;12.77;54.46
84994;BME280;75309;44.830;20.460;2024-02-28T05:27:26;100900.05;;;12.76;54.51
84994;BME280;75309;44.830;20.460;2024-02-28T05:29:54;100903.82;;;12.75;54.44
84994;BME280;75309;44.830;20.460;2024-02-28T05:32:20;100905.14;;;12.74;54.54
84994;BME280;75309;44.830;20.460;2024-02-28T05:34:47;100906.86;;;12.74;54.52
84994;BME280;75309;44.830;20.460;2024-02-28T05:37:16;100906.33;;;12.74;54.48
84994;BME280;75309;44.830;20.460;2024-02-28T05:39:43;100905.17;;;12.75;54.55
84994;BME280;75309;44.830;20.460;2024-02-28T05:42:10;100909.77;;;12.74;54.48
84994;BME280;75309;44.830;20.460;2024-02-28T05:44:36;100913.04;;;12.74;54.53
84994;BME280;75309;44.830;20.460;2024-02-28T05:47:04;100916.66;;;12.74;54.47
84994;BME280;75309;44.830;20.460;2024-02-28T05:49:30;100921.04;;;12.76;54.47
84994;BME280;75309;44.830;20.460;2024-02-28T05:51:57;100920.17;;;12.76;54.52
84994;BME280;75309;44.830;20.460;2024-02-28T05:54:24;100925.21;;;12.76;54.46
84994;BME280;75309;44.830;20.460;2024-02-28T05:56:52;100926.44;;;12.77;54.44
84994;BME280;75309;44.830;20.460;2024-02-28T05:59:19;100930.06;;;12.77;54.44
84994;BME280;75309;44.830;20.460;2024-02-28T06:01:45;100930.07;;;12.78;54.46
84994;BME280;75309;44.830;20.460;2024-02-28T06:04:12;100933.89;;;12.78;54.40
84994;BME280;75309;44.830;20.460;2024-02-28T06:06:39;100938.16;;;12.78;54.46
84994;BME280;75309;44.830;20.460;2024-02-28T06:09:06;100948.13;;;12.77;54.45
84994;BME280;75309;44.830;20.460;2024-02-28T06:11:34;100949.92;;;12.79;54.48
84994;BME280;75309;44.830;20.460;2024-02-28T06:14:02;100954.39;;;12.79;54.37
84994;BME280;75309;44.830;20.460;2024-02-28T06:16:30;100959.95;;;12.80;54.43
84994;BME280;75309;44.830;20.460;2024-02-28T06:18:57;100958.44;;;12.81;54.37
84994;BME280;75309;44.830;20.460;2024-02-28T06:21:24;100963.30;;;12.82;54.48
84994;BME280;75309;44.830;20.460;2024-02-28T06:23:52;100966.02;;;12.81;54.44
84994;BME280;75309;44.830;20.460;2024-02-28T06:26:19;100966.09;;;12.79;54.84
84994;BME280;75309;44.830;20.460;2024-02-28T06:28:45;100967.75;;;12.78;54.80
84994;BME280;75309;44.830;20.460;2024-02-28T06:31:17;100970.68;;;12.82;54.91
84994;BME280;75309;44.830;20.460;2024-02-28T06:33:45;100972.18;;;12.81;55.10
84994;BME280;75309;44.830;20.460;2024-02-28T06:36:13;100974.98;;;12.82;55.27
84994;BME280;75309;44.830;20.460;2024-02-28T06:38:41;100978.77;;;12.82;55.13
84994;BME280;75309;44.830;20.460;2024-02-28T06:41:09;100976.58;;;12.83;55.21
84994;BME280;75309;44.830;20.460;2024-02-28T06:43:36;100976.27;;;12.83;55.19
84994;BME280;75309;44.830;20.460;2024-02-28T06:46:04;100979.95;;;12.85;55.27
84994;BME280;75309;44.830;20.460;2024-02-28T06:48:31;100985.18;;;12.87;55.19
84994;BME280;75309;44.830;20.460;2024-02-28T06:50:58;100987.44;;;12.87;55.25
84994;BME280;75309;44.830;20.460;2024-02-28T06:53:25;100987.61;;;12.91;55.18
84994;BME280;75309;44.830;20.460;2024-02-28T06:55:54;100985.39;;;12.95;55.08
84994;BME280;75309;44.830;20.460;2024-02-28T06:58:20;100986.52;;;13.01;55.01
84994;BME280;75309;44.830;20.460;2024-02-28T07:00:51;100989.62;;;13.05;55.03
84994;BME280;75309;44.830;20.460;2024-02-28T07:03:21;100991.05;;;13.11;54.86
84994;BME280;75309;44.830;20.460;2024-02-28T07:05:48;100987.27;;;13.19;54.75
84994;BME280;75309;44.830;20.460;2024-02-28T07:08:15;100990.86;;;13.26;54.45
84994;BME280;75309;44.830;20.460;2024-02-28T07:10:42;100990.69;;;13.33;54.43
84994;BME280;75309;44.830;20.460;2024-02-28T07:13:10;100994.95;;;13.40;54.22
84994;BME280;75309;44.830;20.460;2024-02-28T07:15:37;100996.19;;;13.46;54.03
84994;BME280;75309;44.830;20.460;2024-02-28T07:18:05;100994.23;;;13.48;53.96
84994;BME280;75309;44.830;20.460;2024-02-28T07:20:33;100994.58;;;13.52;54.01
84994;BME280;75309;44.830;20.460;2024-02-28T07:23:00;100995.02;;;13.54;53.92
84994;BME280;75309;44.830;20.460;2024-02-28T07:25:26;100990.25;;;13.56;53.87
84994;BME280;75309;44.830;20.460;2024-02-28T07:27:57;100994.77;;;13.57;53.82
84994;BME280;75309;44.830;20.460;2024-02-28T07:30:25;100990.30;;;13.57;53.61
84994;BME280;75309;44.830;20.460;2024-02-28T07:32:52;100994.67;;;13.58;53.74
84994;BME280;75309;44.830;20.460;2024-02-28T07:35:20;100995.17;;;13.58;53.69
84994;BME280;75309;44.830;20.460;2024-02-28T07:37:48;100990.41;;;13.59;53.84
84994;BME280;75309;44.830;20.460;2024-02-28T07:40:14;100991.42;;;13.63;53.80
84994;BME280;75309;44.830;20.460;2024-02-28T07:42:41;100988.39;;;13.68;53.63
84994;BME280;75309;44.830;20.460;2024-02-28T07:45:08;100987.33;;;13.77;53.61
84994;BME280;75309;44.830;20.460;2024-02-28T07:47:35;100984.85;;;13.83;53.51
84994;BME280;75309;44.830;20.460;2024-02-28T07:50:02;100984.89;;;13.88;53.35
84994;BME280;75309;44.830;20.460;2024-02-28T07:52:28;100982.73;;;13.95;53.09
84994;BME280;75309;44.830;20.460;2024-02-28T07:54:55;100983.52;;;14.02;53.25
84994;BME280;75309;44.830;20.460;2024-02-28T07:57:22;100983.95;;;14.09;53.09
84994;BME280;75309;44.830;20.460;2024-02-28T07:59:48;100975.59;;;14.15;52.97
84994;BME280;75309;44.830;20.460;2024-02-28T08:02:16;100973.58;;;14.21;52.78
84994;BME280;75309;44.830;20.460;2024-02-28T08:04:46;100981.09;;;14.28;52.48
84994;BME280;75309;44.830;20.460;2024-02-28T08:07:13;100976.71;;;14.35;52.26
84994;BME280;75309;44.830;20.460;2024-02-28T08:09:41;100976.46;;;14.42;52.15
84994;BME280;75309;44.830;20.460;2024-02-28T08:12:08;100972.36;;;14.48;51.97
84994;BME280;75309;44.830;20.460;2024-02-28T08:14:35;100977.69;;;14.52;51.99
84994;BME280;75309;44.830;20.460;2024-02-28T08:17:03;100973.40;;;14.57;51.70
84994;BME280;75309;44.830;20.460;2024-02-28T08:19:30;100975.55;;;14.63;51.65
84994;BME280;75309;44.830;20.460;2024-02-28T08:21:56;100973.73;;;14.69;51.55
84994;BME280;75309;44.830;20.460;2024-02-28T08:24:23;100978.74;;;14.74;51.44
84994;BME280;75309;44.830;20.460;2024-02-28T08:26:50;100977.87;;;14.79;51.31
84994;BME280;75309;44.830;20.460;2024-02-28T08:29:16;100983.14;;;14.81;51.28
84994;BME280;75309;44.830;20.460;2024-02-28T08:31:44;100987.38;;;14.84;51.11
84994;BME280;75309;44.830;20.460;2024-02-28T08:34:11;100990.33;;;14.84;51.04
84994;BME280;75309;44.830;20.460;2024-02-28T08:36:38;100988.66;;;14.86;51.31
84994;BME280;75309;44.830;20.460;2024-02-28T08:39:05;100985.86;;;14.90;51.02
84994;BME280;75309;44.830;20.460;2024-02-28T08:41:33;100994.14;;;14.94;50.97
84994;BME280;75309;44.830;20.460;2024-02-28T08:44:00;100992.05;;;14.99;50.88
84994;BME280;75309;44.830;20.460;2024-02-28T08:46:27;100994.02;;;15.01;50.78
84994;BME280;75309;44.830;20.460;2024-02-28T08:48:53;100999.15;;;15.04;50.70
84994;BME280;75309;44.830;20.460;2024-02-28T08:51:21;100996.20;;;15.09;50.77
84994;BME280;75309;44.830;20.460;2024-02-28T08:53:48;101000.04;;;15.09;50.78
84994;BME280;75309;44.830;20.460;2024-02-28T08:56:14;101003.30;;;15.09;50.96
84994;BME280;75309;44.830;20.460;2024-02-28T08:58:41;101000.45;;;15.12;50.86
84994;BME280;75309;44.830;20.460;2024-02-28T09:01:08;101004.55;;;15.15;50.80
84994;BME280;75309;44.830;20.460;2024-02-28T09:03:35;101007.52;;;15.21;50.82
84994;BME280;75309;44.830;20.460;2024-02-28T09:06:02;101004.09;;;15.26;50.33
84994;BME280;75309;44.830;20.460;2024-02-28T09:08:29;101009.49;;;15.33;50.29
84994;BME280;75309;44.830;20.460;2024-02-28T09:10:55;101011.45;;;15.39;49.88
84994;BME280;75309;44.830;20.460;2024-02-28T09:13:22;101012.52;;;15.45;49.72
84994;BME280;75309;44.830;20.460;2024-02-28T09:15:49;101017.15;;;15.49;49.72
84994;BME280;75309;44.830;20.460;2024-02-28T09:18:20;101017.16;;;15.55;49.46
84994;BME280;75309;44.830;20.460;2024-02-28T09:20:47;101013.48;;;15.59;49.37
84994;BME280;75309;44.830;20.460;2024-02-28T09:23:14;101014.69;;;15.64;49.15
84994;BME280;75309;44.830;20.460;2024-02-28T09:25:42;101011.58;;;15.68;49.31
84994;BME280;75309;44.830;20.460;2024-02-28T09:28:10;101010.14;;;15.72;49.23
84994;BME280;75309;44.830;20.460;2024-02-28T09:30:39;101015.60;;;15.75;49.20
84994;BME280;75309;44.830;20.460;2024-02-28T09:33:18;101016.20;;;15.82;48.88
84994;BME280;75309;44.830;20.460;2024-02-28T09:35:46;101013.86;;;15.84;48.95
84994;BME280;75309;44.830;20.460;2024-02-28T09:38:13;101019.38;;;15.89;48.96
84994;BME280;75309;44.830;20.460;2024-02-28T09:40:39;101021.14;;;15.95;48.82
84994;BME280;75309;44.830;20.460;2024-02-28T09:43:13;101022.72;;;16.01;48.71
84994;BME280;75309;44.830;20.460;2024-02-28T09:45:42;101025.34;;;16.07;48.63
84994;BME280;75309;44.830;20.460;2024-02-28T09:48:12;101026.73;;;16.14;48.76
84994;BME280;75309;44.830;20.460;2024-02-28T09:50:39;101028.25;;;16.17;48.53
84994;BME280;75309;44.830;20.460;2024-02-28T09:53:05;101031.70;;;16.23;48.51
84994;BME280;75309;44.830;20.460;2024-02-28T09:55:37;101027.40;;;16.29;48.45
84994;BME280;75309;44.830;20.460;2024-02-28T09:58:04;101023.45;;;16.35;48.13
84994;BME280;75309;44.830;20.460;2024-02-28T10:00:33;101020.01;;;16.41;48.09
84994;BME280;75309;44.830;20.460;2024-02-28T10:03:00;101012.92;;;16.48;47.75
84994;BME280;75309;44.830;20.460;2024-02-28T10:05:27;101014.70;;;16.55;47.53
84994;BME280;75309;44.830;20.460;2024-02-28T10:07:55;101014.91;;;16.62;47.49
84994;BME280;75309;44.830;20.460;2024-02-28T10:10:22;101019.63;;;16.69;47.32
84994;BME280;75309;44.830;20.460;2024-02-28T10:12:48;101020.63;;;16.74;47.12
84994;BME280;75309;44.830;20.460;2024-02-28T10:15:15;101017.67;;;16.80;47.26
84994;BME280;75309;44.830;20.460;2024-02-28T10:17:42;101016.94;;;16.84;46.94
84994;BME280;75309;44.830;20.460;2024-02-28T10:20:12;101015.61;;;16.86;46.78
84994;BME280;75309;44.830;20.460;2024-02-28T10:22:39;101016.72;;;16.88;46.77
84994;BME280;75309;44.830;20.460;2024-02-28T10:25:07;101015.79;;;16.91;46.59
84994;BME280;75309;44.830;20.460;2024-02-28T10:27:34;101012.86;;;16.92;46.70
84994;BME280;75309;44.830;20.460;2024-02-28T10:30:02;101012.05;;;16.94;46.57
84994;BME280;75309;44.830;20.460;2024-02-28T10:32:32;101017.00;;;16.97;46.62
84994;BME280;75309;44.830;20.460;2024-02-28T10:35:02;101013.30;;;17.01;46.41
84994;BME280;75309;44.830;20.460;2024-02-28T10:37:29;101005.61;;;17.05;46.49
84994;BME280;75309;44.830;20.460;2024-02-28T10:40:00;101002.98;;;17.10;46.57
84994;BME280;75309;44.830;20.460;2024-02-28T10:42:29;100997.71;;;17.14;46.41
84994;BME280;75309;44.830;20.460;2024-02-28T10:44:57;100994.68;;;17.17;46.55
84994;BME280;75309;44.830;20.460;2024-02-28T10:47:50;100989.83;;;17.17;46.08
84994;BME280;75309;44.830;20.460;2024-02-28T10:50:17;100989.63;;;17.16;46.27
84994;BME280;75309;44.830;20.460;2024-02-28T10:52:45;100989.27;;;17.15;46.29
84994;BME280;75309;44.830;20.460;2024-02-28T10:55:21;100985.83;;;17.16;46.32
84994;BME280;75309;44.830;20.460;2024-02-28T10:58:09;100985.59;;;17.14;46.26
84994;BME280;75309;44.830;20.460;2024-02-28T11:00:40;100983.30;;;17.12;46.28
84994;BME280;75309;44.830;20.460;2024-02-28T11:03:16;100987.61;;;17.11;46.13
84994;BME280;75309;44.830;20.460;2024-02-28T11:05:44;100988.81;;;17.11;46.44
84994;BME280;75309;44.830;20.460;2024-02-28T11:08:27;100984.11;;;17.10;46.20
84994;BME280;75309;44.830;20.460;2024-02-28T11:10:55;100983.02;;;17.09;46.32
84994;BME280;75309;44.830;20.460;2024-02-28T11:13:22;100979.73;;;17.09;46.35
84994;BME280;75309;44.830;20.460;2024-02-28T11:15:50;100978.75;;;17.11;46.34
84994;BME280;75309;44.830;20.460;2024-02-28T11:18:17;100973.95;;;17.12;46.28
84994;BME280;75309;44.830;20.460;2024-02-28T11:20:45;100975.02;;;17.14;46.16
84994;BME280;75309;44.830;20.460;2024-02-28T11:23:17;100972.28;;;17.15;46.09
84994;BME280;75309;44.830;20.460;2024-02-28T11:25:45;100970.95;;;17.16;46.08
84994;BME280;75309;44.830;20.460;2024-02-28T11:28:12;100967.58;;;17.20;46.23
84994;BME280;75309;44.830;20.460;2024-02-28T11:30:38;100965.89;;;17.22;46.11
84994;BME280;75309;44.830;20.460;2024-02-28T11:33:05;100959.73;;;17.24;45.84
84994;BME280;75309;44.830;20.460;2024-02-28T11:35:35;100958.41;;;17.27;46.05
84994;BME280;75309;44.830;20.460;2024-02-28T11:38:06;100955.20;;;17.31;46.06
84994;BME280;75309;44.830;20.460;2024-02-28T11:40:33;100951.13;;;17.34;46.11
84994;BME280;75309;44.830;20.460;2024-02-28T11:43:00;100946.66;;;17.35;46.01
84994;BME280;75309;44.830;20.460;2024-02-28T11:45:30;100945.63;;;17.36;45.95
84994;BME280;75309;44.830;20.460;2024-02-28T11:47:56;100941.32;;;17.36;45.92
84994;BME280;75309;44.830;20.460;2024-02-28T11:50:25;100939.94;;;17.37;45.79
84994;BME280;75309;44.830;20.460;2024-02-28T11:52:53;100939.11;;;17.38;45.82
84994;BME280;75309;44.830;20.460;2024-02-28T11:55:19;100935.52;;;17.40;45.78
84994;BME280;75309;44.830;20.460;2024-02-28T11:57:46;100936.47;;;17.43;45.88
84994;BME280;75309;44.830;20.460;2024-02-28T12:00:13;100932.70;;;17.46;45.88
84994;BME280;75309;44.830;20.460;2024-02-28T12:02:41;100929.84;;;17.49;45.87
84994;BME280;75309;44.830;20.460;2024-02-28T12:05:08;100925.40;;;17.51;45.79
84994;BME280;75309;44.830;20.460;2024-02-28T12:07:36;100922.48;;;17.53;45.59
84994;BME280;75309;44.830;20.460;2024-02-28T12:10:03;100919.42;;;17.55;45.53
84994;BME280;75309;44.830;20.460;2024-02-28T12:12:31;100918.61;;;17.57;45.64
84994;BME280;75309;44.830;20.460;2024-02-28T12:14:59;100917.45;;;17.59;45.58
84994;BME280;75309;44.830;20.460;2024-02-28T12:17:26;100915.79;;;17.62;45.55
84994;BME280;75309;44.830;20.460;2024-02-28T12:19:53;100911.52;;;17.64;45.78
84994;BME280;75309;44.830;20.460;2024-02-28T12:22:22;100914.90;;;17.61;45.87
84994;BME280;75309;44.830;20.460;2024-02-28T12:24:49;100912.41;;;17.58;45.93
84994;BME280;75309;44.830;20.460;2024-02-28T12:27:16;100905.50;;;17.60;45.77
84994;BME280;75309;44.830;20.460;2024-02-28T12:29:42;100901.86;;;17.59;45.93
84994;BME280;75309;44.830;20.460;2024-02-28T12:32:09;100903.59;;;17.59;45.91
84994;BME280;75309;44.830;20.460;2024-02-28T12:34:37;100902.79;;;17.62;45.63
84994;BME280;75309;44.830;20.460;2024-02-28T12:37:03;100904.45;;;17.65;45.70
84994;BME280;75309;44.830;20.460;2024-02-28T12:39:31;100901.96;;;17.63;45.69
84994;BME280;75309;44.830;20.460;2024-02-28T12:42:00;100900.18;;;17.62;45.84